sensor_id;sensor_type;location;lat;lon;timestamp;P1;durP1;ratioP1;P2;durP2;ratioP2
20482;SDS011;10400;53.198;6.592;2022-08-19T00:00:12;9.73;;;7.85;;
20482;SDS011;10400;53.198;6.592;2022-08-19T00:02:39;16.67;;;7.90;;
20482;SDS011;10400;53.198;6.592;2022-08-19T00:05:05;12.15;;;8.25;;
20482;SDS011;10400;53.198;6.592;2022-08-19T00:07:31;11.95;;;8.35;;
20482;SDS011;10400;53.198;6.592;2022-08-19T00:09:57;9.73;;;7.45;;
20482;SDS011;10400;53.198;6.592;2022-08-19T00:12:22;10.45;;;7.47;;
20482;SDS011;10400;53.198;6.592;2022-08-19T00:14:48;10.38;;;7.97;;
20482;SDS011;10400;53.198;6.592;2022-08-19T00:17:14;9.95;;;7.95;;
20482;SDS011;10400;53.198;6.592;2022-08-19T00:19:39;13.57;;;8.40;;
20482;SDS011;10400;53.198;6.592;2022-08-19T00:22:05;11.15;;;7.75;;
20482;SDS011;10400;53.198;6.592;2022-08-19T00:24:33;11.20;;;7.93;;
20482;SDS011;10400;53.198;6.592;2022-08-19T00:27:00;12.65;;;8.27;;
20482;SDS011;10400;53.198;6.592;2022-08-19T00:29:27;8.48;;;7.30;;
20482;SDS011;10400;53.198;6.592;2022-08-19T00:31:53;11.68;;;7.50;;
20482;SDS011;10400;53.198;6.592;2022-08-19T00:34:20;9.57;;;7.93;;
20482;SDS011;10400;53.198;6.592;2022-08-19T00:36:46;10.98;;;7.72;;
20482;SDS011;10400;53.198;6.592;2022-08-19T00:39:13;10.68;;;7.40;;
20482;SDS011;10400;53.198;6.592;2022-08-19T00:41:41;10.57;;;7.43;;
20482;SDS011;10400;53.198;6.592;2022-08-19T00:44:13;9.00;;;6.88;;
20482;SDS011;10400;53.198;6.592;2022-08-19T00:46:43;11.15;;;6.80;;
20482;SDS011;10400;53.198;6.592;2022-08-19T00:49:23;16.75;;;7.20;;
20482;SDS011;10400;53.198;6.592;2022-08-19T00:52:00;12.20;;;7.72;;
20482;SDS011;10400;53.198;6.592;2022-08-19T00:54:33;8.55;;;6.95;;
20482;SDS011;10400;53.198;6.592;2022-08-19T00:57:02;10.85;;;7.13;;
20482;SDS011;10400;53.198;6.592;2022-08-19T00:59:31;8.82;;;6.97;;
20482;SDS011;10400;53.198;6.592;2022-08-19T01:01:57;10.70;;;7.10;;
20482;SDS011;10400;53.198;6.592;2022-08-19T01:04:23;9.57;;;6.50;;
20482;SDS011;10400;53.198;6.592;2022-08-19T01:06:49;9.73;;;6.55;;
20482;SDS011;10400;53.198;6.592;2022-08-19T01:09:14;9.05;;;6.50;;
20482;SDS011;10400;53.198;6.592;2022-08-19T01:11:41;11.48;;;7.25;;
20482;SDS011;10400;53.198;6.592;2022-08-19T01:14:09;9.18;;;6.90;;
20482;SDS011;10400;53.198;6.592;2022-08-19T01:16:35;11.13;;;7.40;;
20482;SDS011;10400;53.198;6.592;2022-08-19T01:19:03;10.35;;;6.70;;
20482;SDS011;10400;53.198;6.592;2022-08-19T01:21:55;8.98;;;6.53;;
20482;SDS011;10400;53.198;6.592;2022-08-19T01:24:27;7.97;;;6.35;;
20482;SDS011;10400;53.198;6.592;2022-08-19T01:26:53;7.75;;;6.50;;
20482;SDS011;10400;53.198;6.592;2022-08-19T01:29:19;8.00;;;6.78;;
20482;SDS011;10400;53.198;6.592;2022-08-19T01:31:45;8.65;;;7.03;;
20482;SDS011;10400;53.198;6.592;2022-08-19T01:34:11;9.70;;;7.40;;
20482;SDS011;10400;53.198;6.592;2022-08-19T01:36:41;12.48;;;7.28;;
20482;SDS011;10400;53.198;6.592;2022-08-19T01:39:12;8.52;;;7.53;;
20482;SDS011;10400;53.198;6.592;2022-08-19T01:41:41;9.82;;;8.05;;
20482;SDS011;10400;53.198;6.592;2022-08-19T01:44:07;10.45;;;8.40;;
20482;SDS011;10400;53.198;6.592;2022-08-19T01:46:33;10.15;;;8.43;;
20482;SDS011;10400;53.198;6.592;2022-08-19T01:48:59;12.65;;;8.60;;
20482;SDS011;10400;53.198;6.592;2022-08-19T01:51:27;12.27;;;9.05;;
20482;SDS011;10400;53.198;6.592;2022-08-19T01:53:52;13.02;;;9.18;;
20482;SDS011;10400;53.198;6.592;2022-08-19T01:56:19;12.70;;;9.48;;
20482;SDS011;10400;53.198;6.592;2022-08-19T01:58:46;11.18;;;9.48;;
20482;SDS011;10400;53.198;6.592;2022-08-19T02:01:20;14.85;;;9.77;;
20482;SDS011;10400;53.198;6.592;2022-08-19T02:03:46;14.25;;;9.50;;
20482;SDS011;10400;53.198;6.592;2022-08-19T02:06:12;16.27;;;9.70;;
20482;SDS011;10400;53.198;6.592;2022-08-19T02:08:38;13.02;;;9.05;;
20482;SDS011;10400;53.198;6.592;2022-08-19T02:11:05;16.88;;;9.85;;
20482;SDS011;10400;53.198;6.592;2022-08-19T02:13:32;11.85;;;9.77;;
20482;SDS011;10400;53.198;6.592;2022-08-19T02:15:59;13.05;;;9.40;;
20482;SDS011;10400;53.198;6.592;2022-08-19T02:18:25;12.05;;;9.60;;
20482;SDS011;10400;53.198;6.592;2022-08-19T02:20:51;16.67;;;9.10;;
20482;SDS011;10400;53.198;6.592;2022-08-19T02:23:17;14.98;;;9.40;;
20482;SDS011;10400;53.198;6.592;2022-08-19T02:25:44;12.65;;;9.15;;
20482;SDS011;10400;53.198;6.592;2022-08-19T02:28:12;11.68;;;8.90;;
20482;SDS011;10400;53.198;6.592;2022-08-19T02:30:38;12.18;;;9.13;;
20482;SDS011;10400;53.198;6.592;2022-08-19T02:33:05;11.73;;;8.73;;
20482;SDS011;10400;53.198;6.592;2022-08-19T02:35:31;14.27;;;8.50;;
20482;SDS011;10400;53.198;6.592;2022-08-19T02:37:56;9.43;;;8.18;;
20482;SDS011;10400;53.198;6.592;2022-08-19T02:40:46;9.90;;;8.90;;
20482;SDS011;10400;53.198;6.592;2022-08-19T02:43:35;12.98;;;8.07;;
20482;SDS011;10400;53.198;6.592;2022-08-19T02:46:02;9.88;;;7.95;;
20482;SDS011;10400;53.198;6.592;2022-08-19T02:48:37;10.65;;;7.82;;
20482;SDS011;10400;53.198;6.592;2022-08-19T02:51:02;10.07;;;8.07;;
20482;SDS011;10400;53.198;6.592;2022-08-19T02:53:28;11.20;;;7.72;;
20482;SDS011;10400;53.198;6.592;2022-08-19T02:55:54;11.13;;;8.20;;
20482;SDS011;10400;53.198;6.592;2022-08-19T02:58:20;10.70;;;7.70;;
20482;SDS011;10400;53.198;6.592;2022-08-19T03:00:53;10.85;;;7.88;;
20482;SDS011;10400;53.198;6.592;2022-08-19T03:03:20;13.40;;;8.13;;
20482;SDS011;10400;53.198;6.592;2022-08-19T03:05:46;11.13;;;8.07;;
20482;SDS011;10400;53.198;6.592;2022-08-19T03:08:12;8.65;;;7.32;;
20482;SDS011;10400;53.198;6.592;2022-08-19T03:10:42;9.63;;;7.75;;
20482;SDS011;10400;53.198;6.592;2022-08-19T03:13:10;10.40;;;8.40;;
20482;SDS011;10400;53.198;6.592;2022-08-19T03:15:44;9.70;;;7.18;;
20482;SDS011;10400;53.198;6.592;2022-08-19T03:18:11;9.13;;;7.72;;
20482;SDS011;10400;53.198;6.592;2022-08-19T03:20:41;11.40;;;8.00;;
20482;SDS011;10400;53.198;6.592;2022-08-19T03:23:12;10.15;;;8.15;;
20482;SDS011;10400;53.198;6.592;2022-08-19T03:25:39;14.02;;;8.25;;
20482;SDS011;10400;53.198;6.592;2022-08-19T03:28:08;15.45;;;8.27;;
20482;SDS011;10400;53.198;6.592;2022-08-19T03:30:34;11.85;;;8.88;;
20482;SDS011;10400;53.198;6.592;2022-08-19T03:33:00;10.05;;;8.40;;
20482;SDS011;10400;53.198;6.592;2022-08-19T03:35:27;12.43;;;9.07;;
20482;SDS011;10400;53.198;6.592;2022-08-19T03:37:52;9.65;;;8.32;;
20482;SDS011;10400;53.198;6.592;2022-08-19T03:40:18;12.02;;;9.30;;
20482;SDS011;10400;53.198;6.592;2022-08-19T03:42:44;12.13;;;9.32;;
20482;SDS011;10400;53.198;6.592;2022-08-19T03:45:11;13.85;;;8.90;;
20482;SDS011;10400;53.198;6.592;2022-08-19T03:47:36;14.50;;;9.52;;
20482;SDS011;10400;53.198;6.592;2022-08-19T03:50:03;11.77;;;9.25;;
20482;SDS011;10400;53.198;6.592;2022-08-19T03:52:29;11.95;;;8.50;;
20482;SDS011;10400;53.198;6.592;2022-08-19T03:54:55;10.45;;;8.85;;
20482;SDS011;10400;53.198;6.592;2022-08-19T03:57:20;14.75;;;9.43;;
20482;SDS011;10400;53.198;6.592;2022-08-19T03:59:46;14.40;;;9.32;;
20482;SDS011;10400;53.198;6.592;2022-08-19T04:02:12;12.57;;;9.02;;
20482;SDS011;10400;53.198;6.592;2022-08-19T04:04:39;12.25;;;9.20;;
20482;SDS011;10400;53.198;6.592;2022-08-19T04:07:05;14.02;;;9.70;;
20482;SDS011;10400;53.198;6.592;2022-08-19T04:09:33;12.40;;;9.80;;
20482;SDS011;10400;53.198;6.592;2022-08-19T04:11:59;15.40;;;9.25;;
20482;SDS011;10400;53.198;6.592;2022-08-19T04:14:26;17.35;;;9.50;;
20482;SDS011;10400;53.198;6.592;2022-08-19T04:16:55;11.65;;;9.18;;
20482;SDS011;10400;53.198;6.592;2022-08-19T04:19:21;12.05;;;9.07;;
20482;SDS011;10400;53.198;6.592;2022-08-19T04:21:49;13.38;;;9.30;;
20482;SDS011;10400;53.198;6.592;2022-08-19T04:24:17;10.43;;;8.90;;
20482;SDS011;10400;53.198;6.592;2022-08-19T04:26:43;12.43;;;9.43;;
20482;SDS011;10400;53.198;6.592;2022-08-19T04:29:17;11.40;;;9.32;;
20482;SDS011;10400;53.198;6.592;2022-08-19T04:31:46;12.30;;;9.10;;
20482;SDS011;10400;53.198;6.592;2022-08-19T04:34:13;16.58;;;10.80;;
20482;SDS011;10400;53.198;6.592;2022-08-19T04:36:41;13.45;;;9.98;;
20482;SDS011;10400;53.198;6.592;2022-08-19T04:39:11;12.05;;;9.27;;
20482;SDS011;10400;53.198;6.592;2022-08-19T04:41:38;13.43;;;9.30;;
20482;SDS011;10400;53.198;6.592;2022-08-19T04:44:23;15.13;;;9.30;;
20482;SDS011;10400;53.198;6.592;2022-08-19T04:46:49;12.38;;;9.20;;
20482;SDS011;10400;53.198;6.592;2022-08-19T04:49:16;12.48;;;8.68;;
20482;SDS011;10400;53.198;6.592;2022-08-19T04:51:43;10.88;;;8.85;;
20482;SDS011;10400;53.198;6.592;2022-08-19T04:54:11;10.88;;;8.65;;
20482;SDS011;10400;53.198;6.592;2022-08-19T04:56:37;11.63;;;9.30;;
20482;SDS011;10400;53.198;6.592;2022-08-19T04:59:05;13.75;;;9.55;;
20482;SDS011;10400;53.198;6.592;2022-08-19T05:01:31;12.43;;;10.05;;
20482;SDS011;10400;53.198;6.592;2022-08-19T05:03:59;13.98;;;11.40;;
20482;SDS011;10400;53.198;6.592;2022-08-19T05:06:26;16.10;;;10.60;;
20482;SDS011;10400;53.198;6.592;2022-08-19T05:08:52;16.33;;;10.32;;
20482;SDS011;10400;53.198;6.592;2022-08-19T05:11:23;15.90;;;10.82;;
20482;SDS011;10400;53.198;6.592;2022-08-19T05:13:50;19.25;;;11.52;;
20482;SDS011;10400;53.198;6.592;2022-08-19T05:16:18;18.00;;;10.50;;
20482;SDS011;10400;53.198;6.592;2022-08-19T05:18:45;14.13;;;10.30;;
20482;SDS011;10400;53.198;6.592;2022-08-19T05:21:30;16.33;;;10.75;;
20482;SDS011;10400;53.198;6.592;2022-08-19T05:24:16;12.70;;;10.23;;
20482;SDS011;10400;53.198;6.592;2022-08-19T05:26:48;19.73;;;10.85;;
20482;SDS011;10400;53.198;6.592;2022-08-19T05:29:16;15.52;;;10.70;;
20482;SDS011;10400;53.198;6.592;2022-08-19T05:31:45;13.70;;;9.90;;
20482;SDS011;10400;53.198;6.592;2022-08-19T05:34:14;14.82;;;10.07;;
20482;SDS011;10400;53.198;6.592;2022-08-19T05:36:40;15.60;;;10.82;;
20482;SDS011;10400;53.198;6.592;2022-08-19T05:39:08;15.25;;;11.13;;
20482;SDS011;10400;53.198;6.592;2022-08-19T05:41:41;17.33;;;11.73;;
20482;SDS011;10400;53.198;6.592;2022-08-19T05:44:08;20.05;;;11.50;;
20482;SDS011;10400;53.198;6.592;2022-08-19T05:46:34;14.13;;;10.95;;
20482;SDS011;10400;53.198;6.592;2022-08-19T05:49:02;17.83;;;11.02;;
20482;SDS011;10400;53.198;6.592;2022-08-19T05:51:32;17.30;;;11.07;;
20482;SDS011;10400;53.198;6.592;2022-08-19T05:54:00;14.85;;;11.02;;
20482;SDS011;10400;53.198;6.592;2022-08-19T05:56:26;17.67;;;11.40;;
20482;SDS011;10400;53.198;6.592;2022-08-19T05:58:52;18.77;;;12.15;;
20482;SDS011;10400;53.198;6.592;2022-08-19T06:01:19;16.95;;;11.38;;
20482;SDS011;10400;53.198;6.592;2022-08-19T06:03:46;14.77;;;11.23;;
20482;SDS011;10400;53.198;6.592;2022-08-19T06:06:15;17.63;;;10.95;;
20482;SDS011;10400;53.198;6.592;2022-08-19T06:08:41;18.80;;;11.65;;
20482;SDS011;10400;53.198;6.592;2022-08-19T06:11:22;16.67;;;11.30;;
20482;SDS011;10400;53.198;6.592;2022-08-19T06:14:00;16.85;;;10.65;;
20482;SDS011;10400;53.198;6.592;2022-08-19T06:16:33;15.48;;;10.65;;
20482;SDS011;10400;53.198;6.592;2022-08-19T06:19:03;14.82;;;10.55;;
20482;SDS011;10400;53.198;6.592;2022-08-19T06:21:32;15.57;;;10.10;;
20482;SDS011;10400;53.198;6.592;2022-08-19T06:23:58;14.80;;;9.40;;
20482;SDS011;10400;53.198;6.592;2022-08-19T06:26:25;13.10;;;9.77;;
20482;SDS011;10400;53.198;6.592;2022-08-19T06:28:51;14.25;;;9.32;;
20482;SDS011;10400;53.198;6.592;2022-08-19T06:31:20;12.55;;;9.32;;
20482;SDS011;10400;53.198;6.592;2022-08-19T06:33:50;13.23;;;10.10;;
20482;SDS011;10400;53.198;6.592;2022-08-19T06:36:26;15.43;;;9.88;;
20482;SDS011;10400;53.198;6.592;2022-08-19T06:38:57;14.18;;;9.50;;
20482;SDS011;10400;53.198;6.592;2022-08-19T06:41:24;15.00;;;9.95;;
20482;SDS011;10400;53.198;6.592;2022-08-19T06:43:51;12.48;;;10.73;;
20482;SDS011;10400;53.198;6.592;2022-08-19T06:46:17;14.25;;;9.70;;
20482;SDS011;10400;53.198;6.592;2022-08-19T06:48:44;15.90;;;9.95;;
20482;SDS011;10400;53.198;6.592;2022-08-19T06:51:11;12.90;;;9.30;;
20482;SDS011;10400;53.198;6.592;2022-08-19T06:53:40;13.57;;;9.45;;
20482;SDS011;10400;53.198;6.592;2022-08-19T06:56:12;12.77;;;9.40;;
20482;SDS011;10400;53.198;6.592;2022-08-19T06:58:39;15.55;;;9.95;;
20482;SDS011;10400;53.198;6.592;2022-08-19T07:01:05;16.67;;;9.27;;
20482;SDS011;10400;53.198;6.592;2022-08-19T07:03:31;13.73;;;8.88;;
20482;SDS011;10400;53.198;6.592;2022-08-19T07:06:11;13.18;;;9.02;;
20482;SDS011;10400;53.198;6.592;2022-08-19T07:08:40;17.65;;;8.82;;
20482;SDS011;10400;53.198;6.592;2022-08-19T07:11:08;11.35;;;8.40;;
20482;SDS011;10400;53.198;6.592;2022-08-19T07:13:35;13.15;;;7.82;;
20482;SDS011;10400;53.198;6.592;2022-08-19T07:16:06;11.07;;;8.38;;
20482;SDS011;10400;53.198;6.592;2022-08-19T07:18:32;11.98;;;8.52;;
20482;SDS011;10400;53.198;6.592;2022-08-19T07:21:06;12.10;;;8.43;;
20482;SDS011;10400;53.198;6.592;2022-08-19T07:23:36;11.23;;;8.20;;
20482;SDS011;10400;53.198;6.592;2022-08-19T07:26:06;11.63;;;8.38;;
20482;SDS011;10400;53.198;6.592;2022-08-19T07:28:44;10.25;;;8.32;;
20482;SDS011;10400;53.198;6.592;2022-08-19T07:31:12;12.68;;;8.45;;
20482;SDS011;10400;53.198;6.592;2022-08-19T07:33:39;11.52;;;7.95;;
20482;SDS011;10400;53.198;6.592;2022-08-19T07:36:08;10.63;;;7.90;;
20482;SDS011;10400;53.198;6.592;2022-08-19T07:38:36;10.35;;;7.68;;
20482;SDS011;10400;53.198;6.592;2022-08-19T07:41:04;13.20;;;7.82;;
20482;SDS011;10400;53.198;6.592;2022-08-19T07:43:30;10.75;;;7.90;;
20482;SDS011;10400;53.198;6.592;2022-08-19T07:45:56;11.57;;;8.05;;
20482;SDS011;10400;53.198;6.592;2022-08-19T07:48:23;10.13;;;8.13;;
20482;SDS011;10400;53.198;6.592;2022-08-19T07:50:53;10.73;;;7.28;;
20482;SDS011;10400;53.198;6.592;2022-08-19T07:53:21;12.18;;;7.63;;
20482;SDS011;10400;53.198;6.592;2022-08-19T07:55:47;14.57;;;7.20;;
20482;SDS011;10400;53.198;6.592;2022-08-19T07:58:13;12.52;;;8.10;;
20482;SDS011;10400;53.198;6.592;2022-08-19T08:00:42;9.38;;;7.90;;
20482;SDS011;10400;53.198;6.592;2022-08-19T08:03:09;9.32;;;7.15;;
20482;SDS011;10400;53.198;6.592;2022-08-19T08:05:35;12.30;;;7.75;;
20482;SDS011;10400;53.198;6.592;2022-08-19T08:08:19;6.88;;;6.28;;
20482;SDS011;10400;53.198;6.592;2022-08-19T08:11:04;8.23;;;6.53;;
20482;SDS011;10400;53.198;6.592;2022-08-19T08:13:30;9.00;;;6.80;;
20482;SDS011;10400;53.198;6.592;2022-08-19T08:16:00;12.07;;;8.00;;
20482;SDS011;10400;53.198;6.592;2022-08-19T08:18:26;11.93;;;8.40;;
20482;SDS011;10400;53.198;6.592;2022-08-19T08:20:52;10.63;;;8.23;;
20482;SDS011;10400;53.198;6.592;2022-08-19T08:23:19;10.02;;;7.10;;
20482;SDS011;10400;53.198;6.592;2022-08-19T08:25:47;10.48;;;7.22;;
20482;SDS011;10400;53.198;6.592;2022-08-19T08:28:14;8.15;;;6.28;;
20482;SDS011;10400;53.198;6.592;2022-08-19T08:30:40;9.85;;;5.70;;
20482;SDS011;10400;53.198;6.592;2022-08-19T08:33:07;7.82;;;4.82;;
20482;SDS011;10400;53.198;6.592;2022-08-19T08:35:33;11.68;;;4.80;;
20482;SDS011;10400;53.198;6.592;2022-08-19T08:37:59;8.10;;;5.90;;
20482;SDS011;10400;53.198;6.592;2022-08-19T08:43:01;8.90;;;6.88;;
20482;SDS011;10400;53.198;6.592;2022-08-19T08:45:32;9.35;;;6.40;;
20482;SDS011;10400;53.198;6.592;2022-08-19T08:48:07;8.20;;;5.90;;
20482;SDS011;10400;53.198;6.592;2022-08-19T08:50:46;8.57;;;6.78;;
20482;SDS011;10400;53.198;6.592;2022-08-19T08:53:16;10.57;;;9.05;;
20482;SDS011;10400;53.198;6.592;2022-08-19T08:55:42;12.93;;;9.18;;
20482;SDS011;10400;53.198;6.592;2022-08-19T08:58:12;14.18;;;9.77;;
20482;SDS011;10400;53.198;6.592;2022-08-19T09:00:44;12.48;;;9.05;;
20482;SDS011;10400;53.198;6.592;2022-08-19T09:03:29;10.02;;;8.88;;
20482;SDS011;10400;53.198;6.592;2022-08-19T09:06:07;12.32;;;8.63;;
20482;SDS011;10400;53.198;6.592;2022-08-19T09:09:01;10.45;;;8.45;;
20482;SDS011;10400;53.198;6.592;2022-08-19T09:16:59;11.32;;;7.07;;
20482;SDS011;10400;53.198;6.592;2022-08-19T09:19:28;9.35;;;8.18;;
20482;SDS011;10400;53.198;6.592;2022-08-19T09:21:54;9.68;;;7.30;;
20482;SDS011;10400;53.198;6.592;2022-08-19T09:24:20;10.23;;;8.15;;
20482;SDS011;10400;53.198;6.592;2022-08-19T09:26:46;11.55;;;8.85;;
20482;SDS011;10400;53.198;6.592;2022-08-19T09:29:12;13.88;;;8.95;;
20482;SDS011;10400;53.198;6.592;2022-08-19T09:31:37;11.40;;;8.68;;
20482;SDS011;10400;53.198;6.592;2022-08-19T09:34:03;11.70;;;8.73;;
20482;SDS011;10400;53.198;6.592;2022-08-19T09:36:30;11.32;;;9.05;;
20482;SDS011;10400;53.198;6.592;2022-08-19T09:39:02;11.35;;;9.38;;
20482;SDS011;10400;53.198;6.592;2022-08-19T09:41:29;12.32;;;9.15;;
20482;SDS011;10400;53.198;6.592;2022-08-19T09:43:55;8.95;;;7.90;;
20482;SDS011;10400;53.198;6.592;2022-08-19T09:46:22;13.40;;;8.75;;
20482;SDS011;10400;53.198;6.592;2022-08-19T09:48:50;9.60;;;8.07;;
20482;SDS011;10400;53.198;6.592;2022-08-19T09:51:18;11.07;;;9.23;;
20482;SDS011;10400;53.198;6.592;2022-08-19T09:53:49;11.15;;;9.18;;
20482;SDS011;10400;53.198;6.592;2022-08-19T09:56:16;9.88;;;8.13;;
20482;SDS011;10400;53.198;6.592;2022-08-19T09:58:42;9.90;;;7.93;;
20482;SDS011;10400;53.198;6.592;2022-08-19T10:01:08;11.50;;;8.45;;
20482;SDS011;10400;53.198;6.592;2022-08-19T10:03:39;11.88;;;9.45;;
20482;SDS011;10400;53.198;6.592;2022-08-19T10:06:05;9.27;;;7.63;;
20482;SDS011;10400;53.198;6.592;2022-08-19T10:08:33;9.57;;;8.55;;
20482;SDS011;10400;53.198;6.592;2022-08-19T10:11:00;7.90;;;7.10;;
20482;SDS011;10400;53.198;6.592;2022-08-19T10:13:27;12.05;;;7.45;;
20482;SDS011;10400;53.198;6.592;2022-08-19T10:16:02;9.73;;;8.07;;
20482;SDS011;10400;53.198;6.592;2022-08-19T10:18:34;11.20;;;7.97;;
20482;SDS011;10400;53.198;6.592;2022-08-19T10:21:06;9.85;;;7.88;;
20482;SDS011;10400;53.198;6.592;2022-08-19T10:23:33;9.18;;;7.00;;
20482;SDS011;10400;53.198;6.592;2022-08-19T10:26:04;8.43;;;7.63;;
20482;SDS011;10400;53.198;6.592;2022-08-19T10:28:32;9.55;;;8.52;;
20482;SDS011;10400;53.198;6.592;2022-08-19T10:31:02;9.23;;;8.32;;
20482;SDS011;10400;53.198;6.592;2022-08-19T10:33:48;9.77;;;8.77;;
20482;SDS011;10400;53.198;6.592;2022-08-19T10:36:18;12.57;;;9.07;;
20482;SDS011;10400;53.198;6.592;2022-08-19T10:38:48;9.02;;;6.78;;
20482;SDS011;10400;53.198;6.592;2022-08-19T10:41:19;9.40;;;8.05;;
20482;SDS011;10400;53.198;6.592;2022-08-19T10:43:49;9.75;;;8.27;;
20482;SDS011;10400;53.198;6.592;2022-08-19T10:46:17;9.15;;;7.43;;
20482;SDS011;10400;53.198;6.592;2022-08-19T10:48:43;11.27;;;9.13;;
20482;SDS011;10400;53.198;6.592;2022-08-19T10:51:09;12.88;;;9.02;;
20482;SDS011;10400;53.198;6.592;2022-08-19T10:53:54;9.15;;;7.25;;
20482;SDS011;10400;53.198;6.592;2022-08-19T10:56:21;11.52;;;9.02;;
20482;SDS011;10400;53.198;6.592;2022-08-19T10:59:05;12.30;;;9.15;;
20482;SDS011;10400;53.198;6.592;2022-08-19T11:01:31;9.63;;;8.27;;
20482;SDS011;10400;53.198;6.592;2022-08-19T11:03:59;9.38;;;8.38;;
20482;SDS011;10400;53.198;6.592;2022-08-19T11:06:26;10.45;;;8.52;;
20482;SDS011;10400;53.198;6.592;2022-08-19T11:08:52;11.90;;;9.38;;
20482;SDS011;10400;53.198;6.592;2022-08-19T11:11:19;11.55;;;9.65;;
20482;SDS011;10400;53.198;6.592;2022-08-19T11:13:46;12.63;;;10.80;;
20482;SDS011;10400;53.198;6.592;2022-08-19T11:16:14;13.07;;;9.40;;
20482;SDS011;10400;53.198;6.592;2022-08-19T11:18:43;12.90;;;10.60;;
20482;SDS011;10400;53.198;6.592;2022-08-19T11:21:24;16.08;;;11.70;;
20482;SDS011;10400;53.198;6.592;2022-08-19T11:23:57;13.05;;;10.93;;
20482;SDS011;10400;53.198;6.592;2022-08-19T11:26:26;13.80;;;10.82;;
20482;SDS011;10400;53.198;6.592;2022-08-19T11:28:53;17.17;;;10.23;;
20482;SDS011;10400;53.198;6.592;2022-08-19T11:31:20;11.02;;;8.60;;
20482;SDS011;10400;53.198;6.592;2022-08-19T11:33:47;9.80;;;8.80;;
20482;SDS011;10400;53.198;6.592;2022-08-19T11:36:16;13.45;;;9.45;;
20482;SDS011;10400;53.198;6.592;2022-08-19T11:38:42;10.40;;;9.30;;
20482;SDS011;10400;53.198;6.592;2022-08-19T11:41:09;8.75;;;7.80;;
20482;SDS011;10400;53.198;6.592;2022-08-19T11:43:35;11.73;;;10.07;;
20482;SDS011;10400;53.198;6.592;2022-08-19T11:46:05;11.70;;;9.82;;
20482;SDS011;10400;53.198;6.592;2022-08-19T11:48:35;10.63;;;9.27;;
20482;SDS011;10400;53.198;6.592;2022-08-19T11:51:03;10.02;;;8.90;;
20482;SDS011;10400;53.198;6.592;2022-08-19T11:53:34;14.40;;;10.10;;
20482;SDS011;10400;53.198;6.592;2022-08-19T11:56:01;11.90;;;10.40;;
20482;SDS011;10400;53.198;6.592;2022-08-19T11:58:28;12.68;;;10.82;;
20482;SDS011;10400;53.198;6.592;2022-08-19T12:00:54;12.60;;;10.38;;
20482;SDS011;10400;53.198;6.592;2022-08-19T12:03:19;11.15;;;9.77;;
20482;SDS011;10400;53.198;6.592;2022-08-19T12:05:46;10.07;;;8.93;;
20482;SDS011;10400;53.198;6.592;2022-08-19T12:08:12;14.65;;;10.05;;
20482;SDS011;10400;53.198;6.592;2022-08-19T12:10:39;13.50;;;10.35;;
20482;SDS011;10400;53.198;6.592;2022-08-19T12:13:07;13.40;;;10.45;;
20482;SDS011;10400;53.198;6.592;2022-08-19T12:15:36;11.02;;;9.18;;
20482;SDS011;10400;53.198;6.592;2022-08-19T12:18:05;10.70;;;8.57;;
20482;SDS011;10400;53.198;6.592;2022-08-19T12:20:33;13.68;;;8.95;;
20482;SDS011;10400;53.198;6.592;2022-08-19T12:23:05;12.88;;;10.23;;
20482;SDS011;10400;53.198;6.592;2022-08-19T12:25:32;12.60;;;9.25;;
20482;SDS011;10400;53.198;6.592;2022-08-19T12:27:59;11.10;;;8.43;;
20482;SDS011;10400;53.198;6.592;2022-08-19T12:30:25;12.65;;;10.30;;
20482;SDS011;10400;53.198;6.592;2022-08-19T12:32:51;10.85;;;8.85;;
20482;SDS011;10400;53.198;6.592;2022-08-19T12:35:17;10.23;;;8.98;;
20482;SDS011;10400;53.198;6.592;2022-08-19T12:37:44;12.43;;;8.75;;
20482;SDS011;10400;53.198;6.592;2022-08-19T12:40:11;8.70;;;6.57;;
20482;SDS011;10400;53.198;6.592;2022-08-19T12:42:38;10.60;;;7.40;;
20482;SDS011;10400;53.198;6.592;2022-08-19T12:45:08;10.43;;;8.43;;
20482;SDS011;10400;53.198;6.592;2022-08-19T12:47:38;11.23;;;8.10;;
20482;SDS011;10400;53.198;6.592;2022-08-19T12:50:05;9.23;;;7.50;;
20482;SDS011;10400;53.198;6.592;2022-08-19T12:52:33;11.63;;;8.77;;
20482;SDS011;10400;53.198;6.592;2022-08-19T12:55:02;8.43;;;7.40;;
20482;SDS011;10400;53.198;6.592;2022-08-19T12:57:29;9.82;;;7.32;;
20482;SDS011;10400;53.198;6.592;2022-08-19T12:59:58;10.68;;;6.78;;
20482;SDS011;10400;53.198;6.592;2022-08-19T13:02:24;8.68;;;6.32;;
20482;SDS011;10400;53.198;6.592;2022-08-19T13:04:51;11.45;;;7.43;;
20482;SDS011;10400;53.198;6.592;2022-08-19T13:07:17;10.68;;;7.25;;
20482;SDS011;10400;53.198;6.592;2022-08-19T13:09:42;9.57;;;7.63;;
20482;SDS011;10400;53.198;6.592;2022-08-19T13:12:08;9.23;;;7.38;;
20482;SDS011;10400;53.198;6.592;2022-08-19T13:14:38;9.20;;;7.47;;
20482;SDS011;10400;53.198;6.592;2022-08-19T13:17:05;10.57;;;7.75;;
20482;SDS011;10400;53.198;6.592;2022-08-19T13:19:31;9.43;;;7.57;;
20482;SDS011;10400;53.198;6.592;2022-08-19T13:21:57;10.13;;;7.35;;
20482;SDS011;10400;53.198;6.592;2022-08-19T13:24:23;13.07;;;8.60;;
20482;SDS011;10400;53.198;6.592;2022-08-19T13:26:50;9.90;;;7.63;;
20482;SDS011;10400;53.198;6.592;2022-08-19T13:29:16;11.88;;;7.75;;
20482;SDS011;10400;53.198;6.592;2022-08-19T13:32:00;10.57;;;8.27;;
20482;SDS011;10400;53.198;6.592;2022-08-19T13:34:44;15.02;;;9.20;;
20482;SDS011;10400;53.198;6.592;2022-08-19T13:37:11;15.68;;;11.75;;
20482;SDS011;10400;53.198;6.592;2022-08-19T13:39:37;13.98;;;11.00;;
20482;SDS011;10400;53.198;6.592;2022-08-19T13:42:03;15.48;;;11.48;;
20482;SDS011;10400;53.198;6.592;2022-08-19T13:44:30;18.08;;;11.30;;
20482;SDS011;10400;53.198;6.592;2022-08-19T13:47:00;13.30;;;9.85;;
20482;SDS011;10400;53.198;6.592;2022-08-19T13:49:30;12.88;;;8.77;;
20482;SDS011;10400;53.198;6.592;2022-08-19T13:51:56;14.80;;;8.23;;
20482;SDS011;10400;53.198;6.592;2022-08-19T13:54:22;9.63;;;7.15;;
20482;SDS011;10400;53.198;6.592;2022-08-19T13:56:48;9.52;;;6.38;;
20482;SDS011;10400;53.198;6.592;2022-08-19T13:59:13;13.93;;;6.25;;
20482;SDS011;10400;53.198;6.592;2022-08-19T14:01:39;9.55;;;6.28;;
20482;SDS011;10400;53.198;6.592;2022-08-19T14:04:06;10.57;;;7.00;;
20482;SDS011;10400;53.198;6.592;2022-08-19T14:06:32;7.97;;;6.50;;
20482;SDS011;10400;53.198;6.592;2022-08-19T14:08:58;12.80;;;7.20;;
20482;SDS011;10400;53.198;6.592;2022-08-19T14:11:24;9.52;;;7.03;;
20482;SDS011;10400;53.198;6.592;2022-08-19T14:13:51;9.25;;;6.82;;
20482;SDS011;10400;53.198;6.592;2022-08-19T14:16:16;9.57;;;6.57;;
20482;SDS011;10400;53.198;6.592;2022-08-19T14:18:42;11.52;;;6.72;;
20482;SDS011;10400;53.198;6.592;2022-08-19T14:21:20;8.98;;;6.25;;
20482;SDS011;10400;53.198;6.592;2022-08-19T14:23:48;12.98;;;7.50;;
20482;SDS011;10400;53.198;6.592;2022-08-19T14:26:16;12.57;;;8.77;;
20482;SDS011;10400;53.198;6.592;2022-08-19T14:28:43;15.50;;;8.68;;
20482;SDS011;10400;53.198;6.592;2022-08-19T14:31:12;11.82;;;9.45;;
20482;SDS011;10400;53.198;6.592;2022-08-19T14:33:43;11.68;;;8.55;;
20482;SDS011;10400;53.198;6.592;2022-08-19T14:36:09;14.75;;;9.10;;
20482;SDS011;10400;53.198;6.592;2022-08-19T14:38:34;15.95;;;10.00;;
20482;SDS011;10400;53.198;6.592;2022-08-19T14:41:16;15.05;;;9.48;;
20482;SDS011;10400;53.198;6.592;2022-08-19T14:43:44;16.00;;;9.10;;
20482;SDS011;10400;53.198;6.592;2022-08-19T14:46:15;15.40;;;8.90;;
20482;SDS011;10400;53.198;6.592;2022-08-19T14:48:42;15.75;;;9.43;;
20482;SDS011;10400;53.198;6.592;2022-08-19T14:51:09;13.57;;;8.70;;